sensor_id;sensor_type;location;lat;lon;timestamp;P1;durP1;ratioP1;P2;durP2;ratioP2
60867;SDS011;46702;48.370;10.794;2023-09-19T00:01:41;3.40;;;1.50;;
60867;SDS011;46702;48.370;10.794;2023-09-19T00:04:09;3.08;;;1.60;;
60867;SDS011;46702;48.370;10.794;2023-09-19T00:06:35;1.63;;;1.20;;
60867;SDS011;46702;48.370;10.794;2023-09-19T00:09:02;3.08;;;1.30;;
60867;SDS011;46702;48.370;10.794;2023-09-19T00:11:28;3.65;;;1.20;;
60867;SDS011;46702;48.370;10.794;2023-09-19T00:13:54;1.52;;;1.25;;
60867;SDS011;46702;48.370;10.794;2023-09-19T00:16:19;3.10;;;1.58;;
60867;SDS011;46702;48.370;10.794;2023-09-19T00:18:45;1.35;;;1.20;;
60867;SDS011;46702;48.370;10.794;2023-09-19T00:21:11;1.42;;;1.27;;
60867;SDS011;46702;48.370;10.794;2023-09-19T00:23:37;1.50;;;1.40;;
60867;SDS011;46702;48.370;10.794;2023-09-19T00:26:03;1.50;;;1.40;;
60867;SDS011;46702;48.370;10.794;2023-09-19T00:28:29;2.10;;;1.33;;
60867;SDS011;46702;48.370;10.794;2023-09-19T00:30:56;1.55;;;1.20;;
60867;SDS011;46702;48.370;10.794;2023-09-19T00:33:22;3.08;;;1.20;;
60867;SDS011;46702;48.370;10.794;2023-09-19T00:35:51;1.98;;;1.40;;
60867;SDS011;46702;48.370;10.794;2023-09-19T00:38:18;1.20;;;1.10;;
60867;SDS011;46702;48.370;10.794;2023-09-19T00:40:47;1.65;;;1.25;;
60867;SDS011;46702;48.370;10.794;2023-09-19T00:43:14;2.88;;;1.65;;
60867;SDS011;46702;48.370;10.794;2023-09-19T00:45:42;1.13;;;1.02;;
60867;SDS011;46702;48.370;10.794;2023-09-19T00:48:13;1.52;;;1.42;;
60867;SDS011;46702;48.370;10.794;2023-09-19T00:50:41;1.75;;;1.20;;
60867;SDS011;46702;48.370;10.794;2023-09-19T00:53:09;1.40;;;1.17;;
60867;SDS011;46702;48.370;10.794;2023-09-19T00:55:38;1.25;;;1.15;;
60867;SDS011;46702;48.370;10.794;2023-09-19T00:58:05;3.28;;;1.40;;
60867;SDS011;46702;48.370;10.794;2023-09-19T01:00:35;3.35;;;1.40;;
60867;SDS011;46702;48.370;10.794;2023-09-19T01:03:01;3.72;;;1.40;;
60867;SDS011;46702;48.370;10.794;2023-09-19T01:05:27;4.40;;;1.55;;
60867;SDS011;46702;48.370;10.794;2023-09-19T01:07:53;3.58;;;1.70;;
60867;SDS011;46702;48.370;10.794;2023-09-19T01:10:19;1.77;;;1.30;;
60867;SDS011;46702;48.370;10.794;2023-09-19T01:12:56;2.70;;;1.80;;
60867;SDS011;46702;48.370;10.794;2023-09-19T01:15:44;2.97;;;1.60;;
60867;SDS011;46702;48.370;10.794;2023-09-19T01:21:01;3.10;;;1.63;;
60867;SDS011;46702;48.370;10.794;2023-09-19T01:23:39;2.05;;;1.38;;
60867;SDS011;46702;48.370;10.794;2023-09-19T01:31:56;3.80;;;1.60;;
60867;SDS011;46702;48.370;10.794;2023-09-19T01:34:42;3.33;;;1.40;;
60867;SDS011;46702;48.370;10.794;2023-09-19T01:37:21;2.28;;;1.55;;
60867;SDS011;46702;48.370;10.794;2023-09-19T01:39:52;1.67;;;1.58;;
60867;SDS011;46702;48.370;10.794;2023-09-19T01:45:01;1.70;;;1.60;;
60867;SDS011;46702;48.370;10.794;2023-09-19T01:47:34;2.47;;;1.48;;
60867;SDS011;46702;48.370;10.794;2023-09-19T01:53:05;2.75;;;1.50;;
60867;SDS011;46702;48.370;10.794;2023-09-19T01:55:37;1.75;;;1.50;;
60867;SDS011;46702;48.370;10.794;2023-09-19T02:00:47;2.70;;;1.40;;
60867;SDS011;46702;48.370;10.794;2023-09-19T02:03:16;2.42;;;1.50;;
60867;SDS011;46702;48.370;10.794;2023-09-19T02:05:50;2.50;;;1.50;;
60867;SDS011;46702;48.370;10.794;2023-09-19T02:08:19;1.80;;;1.30;;
60867;SDS011;46702;48.370;10.794;2023-09-19T02:10:49;2.17;;;1.50;;
60867;SDS011;46702;48.370;10.794;2023-09-19T02:13:18;1.58;;;1.48;;
60867;SDS011;46702;48.370;10.794;2023-09-19T02:15:45;2.15;;;1.83;;
60867;SDS011;46702;48.370;10.794;2023-09-19T02:18:12;2.38;;;1.80;;
60867;SDS011;46702;48.370;10.794;2023-09-19T02:20:38;2.25;;;2.05;;
60867;SDS011;46702;48.370;10.794;2023-09-19T02:23:04;4.20;;;1.48;;
60867;SDS011;46702;48.370;10.794;2023-09-19T02:25:30;4.03;;;1.77;;
60867;SDS011;46702;48.370;10.794;2023-09-19T02:27:57;3.30;;;1.77;;
60867;SDS011;46702;48.370;10.794;2023-09-19T02:30:24;1.92;;;1.77;;
60867;SDS011;46702;48.370;10.794;2023-09-19T02:32:51;1.95;;;1.77;;
60867;SDS011;46702;48.370;10.794;2023-09-19T02:35:16;3.10;;;1.77;;
60867;SDS011;46702;48.370;10.794;2023-09-19T02:37:45;3.72;;;1.77;;
60867;SDS011;46702;48.370;10.794;2023-09-19T02:40:11;1.73;;;1.63;;
60867;SDS011;46702;48.370;10.794;2023-09-19T02:42:53;4.65;;;1.60;;
60867;SDS011;46702;48.370;10.794;2023-09-19T02:45:19;2.40;;;1.70;;
60867;SDS011;46702;48.370;10.794;2023-09-19T02:47:46;3.70;;;1.88;;
60867;SDS011;46702;48.370;10.794;2023-09-19T02:50:12;3.47;;;1.60;;
60867;SDS011;46702;48.370;10.794;2023-09-19T02:55:13;1.85;;;1.73;;
60867;SDS011;46702;48.370;10.794;2023-09-19T02:57:52;3.13;;;1.60;;
60867;SDS011;46702;48.370;10.794;2023-09-19T03:00:22;2.45;;;1.70;;
60867;SDS011;46702;48.370;10.794;2023-09-19T03:02:49;1.60;;;1.50;;
60867;SDS011;46702;48.370;10.794;2023-09-19T03:05:18;4.70;;;1.67;;
60867;SDS011;46702;48.370;10.794;2023-09-19T03:07:44;1.65;;;1.45;;
60867;SDS011;46702;48.370;10.794;2023-09-19T03:10:12;2.00;;;1.30;;
60867;SDS011;46702;48.370;10.794;2023-09-19T03:12:39;2.47;;;1.38;;
60867;SDS011;46702;48.370;10.794;2023-09-19T03:15:05;2.10;;;1.55;;
60867;SDS011;46702;48.370;10.794;2023-09-19T03:17:33;2.22;;;1.50;;
60867;SDS011;46702;48.370;10.794;2023-09-19T03:19:59;1.83;;;1.30;;
60867;SDS011;46702;48.370;10.794;2023-09-19T03:22:26;2.33;;;1.30;;
60867;SDS011;46702;48.370;10.794;2023-09-19T03:24:52;1.30;;;1.20;;
60867;SDS011;46702;48.370;10.794;2023-09-19T03:27:18;1.65;;;1.48;;
60867;SDS011;46702;48.370;10.794;2023-09-19T03:29:45;1.63;;;1.43;;
60867;SDS011;46702;48.370;10.794;2023-09-19T03:32:12;2.03;;;1.30;;
60867;SDS011;46702;48.370;10.794;2023-09-19T03:34:38;2.30;;;1.35;;
60867;SDS011;46702;48.370;10.794;2023-09-19T03:37:11;1.40;;;1.30;;
60867;SDS011;46702;48.370;10.794;2023-09-19T03:39:36;2.78;;;1.73;;
60867;SDS011;46702;48.370;10.794;2023-09-19T03:42:02;1.50;;;1.23;;
60867;SDS011;46702;48.370;10.794;2023-09-19T03:44:32;1.58;;;1.27;;
60867;SDS011;46702;48.370;10.794;2023-09-19T03:46:58;1.80;;;1.30;;
60867;SDS011;46702;48.370;10.794;2023-09-19T03:49:24;2.30;;;1.40;;
60867;SDS011;46702;48.370;10.794;2023-09-19T03:51:49;1.70;;;1.50;;
60867;SDS011;46702;48.370;10.794;2023-09-19T03:54:17;1.65;;;1.50;;
60867;SDS011;46702;48.370;10.794;2023-09-19T03:56:44;2.20;;;1.60;;
60867;SDS011;46702;48.370;10.794;2023-09-19T03:59:10;2.65;;;1.05;;
60867;SDS011;46702;48.370;10.794;2023-09-19T04:01:37;1.90;;;1.30;;
60867;SDS011;46702;48.370;10.794;2023-09-19T04:04:03;3.00;;;1.67;;
60867;SDS011;46702;48.370;10.794;2023-09-19T04:06:34;1.70;;;1.60;;
60867;SDS011;46702;48.370;10.794;2023-09-19T04:09:00;1.70;;;1.17;;
60867;SDS011;46702;48.370;10.794;2023-09-19T04:11:28;2.50;;;1.40;;
60867;SDS011;46702;48.370;10.794;2023-09-19T04:13:54;2.85;;;1.55;;
60867;SDS011;46702;48.370;10.794;2023-09-19T04:16:20;1.45;;;1.30;;
60867;SDS011;46702;48.370;10.794;2023-09-19T04:18:45;1.77;;;1.40;;
60867;SDS011;46702;48.370;10.794;2023-09-19T04:21:11;2.05;;;1.42;;
60867;SDS011;46702;48.370;10.794;2023-09-19T04:23:36;2.20;;;1.30;;
60867;SDS011;46702;48.370;10.794;2023-09-19T04:26:02;1.50;;;1.30;;
60867;SDS011;46702;48.370;10.794;2023-09-19T04:28:31;1.88;;;1.55;;
60867;SDS011;46702;48.370;10.794;2023-09-19T04:30:59;1.80;;;1.35;;
60867;SDS011;46702;48.370;10.794;2023-09-19T04:33:25;4.30;;;1.67;;
60867;SDS011;46702;48.370;10.794;2023-09-19T04:35:52;1.55;;;1.30;;
60867;SDS011;46702;48.370;10.794;2023-09-19T04:38:18;2.90;;;1.50;;
60867;SDS011;46702;48.370;10.794;2023-09-19T04:40:44;2.35;;;1.30;;
60867;SDS011;46702;48.370;10.794;2023-09-19T04:43:10;3.00;;;1.52;;
60867;SDS011;46702;48.370;10.794;2023-09-19T04:45:36;2.28;;;1.60;;
60867;SDS011;46702;48.370;10.794;2023-09-19T04:50:31;2.03;;;1.58;;
60867;SDS011;46702;48.370;10.794;2023-09-19T04:52:57;2.75;;;1.20;;
60867;SDS011;46702;48.370;10.794;2023-09-19T04:55:25;2.38;;;1.48;;
60867;SDS011;46702;48.370;10.794;2023-09-19T04:57:51;3.03;;;1.45;;
60867;SDS011;46702;48.370;10.794;2023-09-19T05:00:18;2.88;;;1.40;;
60867;SDS011;46702;48.370;10.794;2023-09-19T05:02:52;1.70;;;1.58;;
60867;SDS011;46702;48.370;10.794;2023-09-19T05:05:21;3.00;;;2.10;;
60867;SDS011;46702;48.370;10.794;2023-09-19T05:07:48;2.13;;;1.77;;
60867;SDS011;46702;48.370;10.794;2023-09-19T05:10:14;3.35;;;1.85;;
60867;SDS011;46702;48.370;10.794;2023-09-19T05:12:43;2.20;;;1.70;;
60867;SDS011;46702;48.370;10.794;2023-09-19T05:15:10;2.03;;;1.65;;
60867;SDS011;46702;48.370;10.794;2023-09-19T05:17:37;2.10;;;1.80;;
60867;SDS011;46702;48.370;10.794;2023-09-19T05:20:03;3.90;;;1.65;;
60867;SDS011;46702;48.370;10.794;2023-09-19T05:22:40;2.55;;;1.30;;
60867;SDS011;46702;48.370;10.794;2023-09-19T05:25:08;5.75;;;1.88;;
60867;SDS011;46702;48.370;10.794;2023-09-19T05:27:34;1.88;;;1.67;;
60867;SDS011;46702;48.370;10.794;2023-09-19T05:30:00;1.63;;;1.45;;
60867;SDS011;46702;48.370;10.794;2023-09-19T05:32:26;1.92;;;1.58;;
60867;SDS011;46702;48.370;10.794;2023-09-19T05:34:52;2.83;;;1.55;;
60867;SDS011;46702;48.370;10.794;2023-09-19T05:37:21;3.55;;;1.80;;
60867;SDS011;46702;48.370;10.794;2023-09-19T05:39:48;2.63;;;1.40;;
60867;SDS011;46702;48.370;10.794;2023-09-19T05:42:14;2.92;;;2.08;;
60867;SDS011;46702;48.370;10.794;2023-09-19T05:44:40;2.50;;;1.40;;
60867;SDS011;46702;48.370;10.794;2023-09-19T05:47:05;3.20;;;1.35;;
60867;SDS011;46702;48.370;10.794;2023-09-19T05:49:33;2.08;;;1.48;;
60867;SDS011;46702;48.370;10.794;2023-09-19T05:52:06;3.40;;;1.40;;
60867;SDS011;46702;48.370;10.794;2023-09-19T05:54:32;3.80;;;1.40;;
60867;SDS011;46702;48.370;10.794;2023-09-19T05:56:59;2.00;;;1.60;;
60867;SDS011;46702;48.370;10.794;2023-09-19T05:59:25;1.63;;;1.50;;
60867;SDS011;46702;48.370;10.794;2023-09-19T06:01:51;1.60;;;1.40;;
60867;SDS011;46702;48.370;10.794;2023-09-19T06:04:17;3.33;;;1.55;;
60867;SDS011;46702;48.370;10.794;2023-09-19T06:06:44;1.55;;;1.45;;
60867;SDS011;46702;48.370;10.794;2023-09-19T06:09:10;2.00;;;1.58;;
60867;SDS011;46702;48.370;10.794;2023-09-19T06:11:36;1.80;;;1.30;;
60867;SDS011;46702;48.370;10.794;2023-09-19T06:14:02;2.60;;;1.58;;
60867;SDS011;46702;48.370;10.794;2023-09-19T06:16:29;2.38;;;1.70;;
60867;SDS011;46702;48.370;10.794;2023-09-19T06:19:04;2.95;;;1.30;;
60867;SDS011;46702;48.370;10.794;2023-09-19T06:21:33;1.17;;;1.05;;
60867;SDS011;46702;48.370;10.794;2023-09-19T06:23:59;1.92;;;1.35;;
60867;SDS011;46702;48.370;10.794;2023-09-19T06:26:25;2.55;;;1.65;;
60867;SDS011;46702;48.370;10.794;2023-09-19T06:28:52;2.42;;;1.58;;
60867;SDS011;46702;48.370;10.794;2023-09-19T06:31:17;1.60;;;1.30;;
60867;SDS011;46702;48.370;10.794;2023-09-19T06:33:43;1.38;;;1.20;;
60867;SDS011;46702;48.370;10.794;2023-09-19T06:36:09;1.40;;;1.27;;
60867;SDS011;46702;48.370;10.794;2023-09-19T06:38:35;1.75;;;1.20;;
60867;SDS011;46702;48.370;10.794;2023-09-19T06:41:01;2.85;;;1.70;;
60867;SDS011;46702;48.370;10.794;2023-09-19T06:43:34;2.40;;;1.30;;
60867;SDS011;46702;48.370;10.794;2023-09-19T06:46:00;2.22;;;1.30;;
60867;SDS011;46702;48.370;10.794;2023-09-19T06:48:26;3.33;;;1.30;;
60867;SDS011;46702;48.370;10.794;2023-09-19T06:50:54;1.00;;;1.00;;
60867;SDS011;46702;48.370;10.794;2023-09-19T06:53:20;1.23;;;1.13;;
60867;SDS011;46702;48.370;10.794;2023-09-19T06:55:46;3.08;;;1.20;;
60867;SDS011;46702;48.370;10.794;2023-09-19T06:58:12;1.80;;;1.17;;
60867;SDS011;46702;48.370;10.794;2023-09-19T07:00:38;1.70;;;1.30;;
60867;SDS011;46702;48.370;10.794;2023-09-19T07:03:05;2.10;;;1.35;;
60867;SDS011;46702;48.370;10.794;2023-09-19T07:05:38;2.75;;;1.27;;
60867;SDS011;46702;48.370;10.794;2023-09-19T07:08:05;3.13;;;1.35;;
60867;SDS011;46702;48.370;10.794;2023-09-19T07:10:31;1.40;;;1.00;;
60867;SDS011;46702;48.370;10.794;2023-09-19T07:13:02;1.73;;;1.25;;
60867;SDS011;46702;48.370;10.794;2023-09-19T07:15:32;1.95;;;1.17;;
60867;SDS011;46702;48.370;10.794;2023-09-19T07:18:03;1.60;;;1.05;;
60867;SDS011;46702;48.370;10.794;2023-09-19T07:20:30;2.53;;;1.40;;
60867;SDS011;46702;48.370;10.794;2023-09-19T07:22:57;1.48;;;1.00;;
60867;SDS011;46702;48.370;10.794;2023-09-19T07:25:29;1.50;;;1.40;;
60867;SDS011;46702;48.370;10.794;2023-09-19T07:27:55;1.85;;;1.20;;
60867;SDS011;46702;48.370;10.794;2023-09-19T07:30:24;2.25;;;1.65;;
60867;SDS011;46702;48.370;10.794;2023-09-19T07:32:51;1.40;;;1.30;;
60867;SDS011;46702;48.370;10.794;2023-09-19T07:35:17;1.05;;;0.98;;
60867;SDS011;46702;48.370;10.794;2023-09-19T07:37:45;1.20;;;1.10;;
60867;SDS011;46702;48.370;10.794;2023-09-19T07:40:14;2.65;;;1.20;;
60867;SDS011;46702;48.370;10.794;2023-09-19T07:42:40;2.35;;;1.25;;
60867;SDS011;46702;48.370;10.794;2023-09-19T07:45:07;4.28;;;1.50;;
60867;SDS011;46702;48.370;10.794;2023-09-19T07:47:33;1.65;;;1.48;;
60867;SDS011;46702;48.370;10.794;2023-09-19T07:49:59;1.20;;;1.10;;
60867;SDS011;46702;48.370;10.794;2023-09-19T07:54:53;1.00;;;1.00;;
60867;SDS011;46702;48.370;10.794;2023-09-19T07:57:19;2.50;;;1.15;;
60867;SDS011;46702;48.370;10.794;2023-09-19T07:59:45;1.60;;;1.30;;
60867;SDS011;46702;48.370;10.794;2023-09-19T08:02:11;1.65;;;1.55;;
60867;SDS011;46702;48.370;10.794;2023-09-19T08:04:44;1.85;;;1.00;;
60867;SDS011;46702;48.370;10.794;2023-09-19T08:07:14;1.75;;;1.13;;
60867;SDS011;46702;48.370;10.794;2023-09-19T08:09:39;1.33;;;1.20;;
60867;SDS011;46702;48.370;10.794;2023-09-19T08:12:06;1.98;;;1.10;;
60867;SDS011;46702;48.370;10.794;2023-09-19T08:14:35;1.88;;;1.15;;
60867;SDS011;46702;48.370;10.794;2023-09-19T08:17:01;1.27;;;1.05;;
60867;SDS011;46702;48.370;10.794;2023-09-19T08:19:27;1.73;;;1.30;;
60867;SDS011;46702;48.370;10.794;2023-09-19T08:21:57;2.40;;;1.02;;
60867;SDS011;46702;48.370;10.794;2023-09-19T08:24:29;1.00;;;0.90;;
60867;SDS011;46702;48.370;10.794;2023-09-19T08:26:56;1.23;;;1.13;;
60867;SDS011;46702;48.370;10.794;2023-09-19T08:29:23;1.55;;;1.08;;
60867;SDS011;46702;48.370;10.794;2023-09-19T08:31:55;1.10;;;1.00;;
60867;SDS011;46702;48.370;10.794;2023-09-19T08:34:24;2.80;;;0.75;;
60867;SDS011;46702;48.370;10.794;2023-09-19T08:36:53;1.00;;;0.90;;
60867;SDS011;46702;48.370;10.794;2023-09-19T08:39:22;1.58;;;1.02;;
60867;SDS011;46702;48.370;10.794;2023-09-19T08:41:49;0.80;;;0.80;;
60867;SDS011;46702;48.370;10.794;2023-09-19T08:44:14;2.92;;;0.90;;
60867;SDS011;46702;48.370;10.794;2023-09-19T08:46:41;0.70;;;0.65;;
60867;SDS011;46702;48.370;10.794;2023-09-19T08:49:10;0.95;;;0.90;;
60867;SDS011;46702;48.370;10.794;2023-09-19T08:51:54;2.22;;;1.00;;
60867;SDS011;46702;48.370;10.794;2023-09-19T08:54:32;1.15;;;0.82;;
60867;SDS011;46702;48.370;10.794;2023-09-19T08:57:04;0.70;;;0.70;;
60867;SDS011;46702;48.370;10.794;2023-09-19T08:59:36;1.00;;;0.90;;
60867;SDS011;46702;48.370;10.794;2023-09-19T09:02:05;0.85;;;0.80;;
60867;SDS011;46702;48.370;10.794;2023-09-19T09:04:37;0.90;;;0.90;;
60867;SDS011;46702;48.370;10.794;2023-09-19T09:07:06;0.80;;;0.80;;
60867;SDS011;46702;48.370;10.794;2023-09-19T09:09:38;1.20;;;0.70;;
60867;SDS011;46702;48.370;10.794;2023-09-19T09:12:16;1.05;;;0.80;;
60867;SDS011;46702;48.370;10.794;2023-09-19T09:14:45;1.35;;;0.75;;
60867;SDS011;46702;48.370;10.794;2023-09-19T09:17:14;2.33;;;0.98;;
60867;SDS011;46702;48.370;10.794;2023-09-19T09:19:40;0.70;;;0.70;;
60867;SDS011;46702;48.370;10.794;2023-09-19T09:22:09;1.38;;;0.77;;
60867;SDS011;46702;48.370;10.794;2023-09-19T09:24:37;1.08;;;0.70;;
60867;SDS011;46702;48.370;10.794;2023-09-19T09:27:15;1.77;;;0.90;;
60867;SDS011;46702;48.370;10.794;2023-09-19T09:29:42;0.80;;;0.80;;
60867;SDS011;46702;48.370;10.794;2023-09-19T09:32:42;1.75;;;0.70;;
60867;SDS011;46702;48.370;10.794;2023-09-19T09:35:06;1.05;;;0.70;;
60867;SDS011;46702;48.370;10.794;2023-09-19T09:37:34;0.75;;;0.75;;
60867;SDS011;46702;48.370;10.794;2023-09-19T09:40:03;0.50;;;0.50;;
60867;SDS011;46702;48.370;10.794;2023-09-19T09:42:56;1.23;;;0.80;;
60867;SDS011;46702;48.370;10.794;2023-09-19T09:47:59;1.00;;;0.90;;
60867;SDS011;46702;48.370;10.794;2023-09-19T09:50:31;0.88;;;0.80;;
60867;SDS011;46702;48.370;10.794;2023-09-19T09:53:07;2.28;;;0.73;;
60867;SDS011;46702;48.370;10.794;2023-09-19T09:55:58;1.27;;;0.70;;
60867;SDS011;46702;48.370;10.794;2023-09-19T09:58:35;0.80;;;0.80;;
60867;SDS011;46702;48.370;10.794;2023-09-19T10:01:02;1.10;;;0.60;;
60867;SDS011;46702;48.370;10.794;2023-09-19T10:03:37;0.80;;;0.80;;
60867;SDS011;46702;48.370;10.794;2023-09-19T10:06:13;1.00;;;0.82;;
60867;SDS011;46702;48.370;10.794;2023-09-19T10:09:01;1.48;;;1.00;;
60867;SDS011;46702;48.370;10.794;2023-09-19T10:11:35;0.80;;;0.80;;
60867;SDS011;46702;48.370;10.794;2023-09-19T10:14:09;0.98;;;0.80;;
60867;SDS011;46702;48.370;10.794;2023-09-19T10:16:37;1.60;;;1.10;;
60867;SDS011;46702;48.370;10.794;2023-09-19T10:19:06;1.00;;;0.70;;
60867;SDS011;46702;48.370;10.794;2023-09-19T10:24:01;1.67;;;0.80;;
60867;SDS011;46702;48.370;10.794;2023-09-19T10:26:29;1.55;;;1.10;;
60867;SDS011;46702;48.370;10.794;2023-09-19T10:28:56;1.88;;;1.00;;
60867;SDS011;46702;48.370;10.794;2023-09-19T10:31:25;0.75;;;0.70;;
60867;SDS011;46702;48.370;10.794;2023-09-19T10:33:53;1.20;;;1.10;;
60867;SDS011;46702;48.370;10.794;2023-09-19T10:36:24;0.82;;;0.82;;
60867;SDS011;46702;48.370;10.794;2023-09-19T10:38:54;4.75;;;1.00;;
60867;SDS011;46702;48.370;10.794;2023-09-19T10:41:23;0.95;;;0.88;;
60867;SDS011;46702;48.370;10.794;2023-09-19T10:43:50;1.02;;;0.77;;
60867;SDS011;46702;48.370;10.794;2023-09-19T10:46:19;1.00;;;0.90;;
60867;SDS011;46702;48.370;10.794;2023-09-19T10:48:45;1.02;;;0.93;;
60867;SDS011;46702;48.370;10.794;2023-09-19T10:51:16;1.38;;;0.95;;
60867;SDS011;46702;48.370;10.794;2023-09-19T10:56:21;1.40;;;0.90;;
60867;SDS011;46702;48.370;10.794;2023-09-19T10:58:57;1.77;;;0.73;;
60867;SDS011;46702;48.370;10.794;2023-09-19T11:01:53;1.67;;;1.00;;
60867;SDS011;46702;48.370;10.794;2023-09-19T11:04:30;1.00;;;0.90;;
60867;SDS011;46702;48.370;10.794;2023-09-19T11:09:43;1.05;;;0.88;;
60867;SDS011;46702;48.370;10.794;2023-09-19T11:15:06;1.10;;;1.00;;
60867;SDS011;46702;48.370;10.794;2023-09-19T11:17:39;1.45;;;1.05;;
60867;SDS011;46702;48.370;10.794;2023-09-19T11:33:17;1.42;;;0.98;;
60867;SDS011;46702;48.370;10.794;2023-09-19T11:36:09;0.98;;;0.82;;
60867;SDS011;46702;48.370;10.794;2023-09-19T11:43:51;0.60;;;0.60;;
60867;SDS011;46702;48.370;10.794;2023-09-19T11:46:29;2.30;;;0.95;;
60867;SDS011;46702;48.370;10.794;2023-09-19T11:49:04;0.80;;;0.80;;
60867;SDS011;46702;48.370;10.794;2023-09-19T11:51:41;1.58;;;0.90;;
60867;SDS011;46702;48.370;10.794;2023-09-19T11:54:11;0.85;;;0.77;;
60867;SDS011;46702;48.370;10.794;2023-09-19T11:56:43;2.10;;;1.00;;
60867;SDS011;46702;48.370;10.794;2023-09-19T11:59:10;0.70;;;0.70;;
60867;SDS011;46702;48.370;10.794;2023-09-19T12:01:50;1.17;;;1.10;;
60867;SDS011;46702;48.370;10.794;2023-09-19T12:04:33;0.98;;;0.80;;
60867;SDS011;46702;48.370;10.794;2023-09-19T12:07:03;1.08;;;0.90;;
60867;SDS011;46702;48.370;10.794;2023-09-19T12:09:39;1.15;;;1.00;;
60867;SDS011;46702;48.370;10.794;2023-09-19T12:12:09;1.98;;;0.95;;
60867;SDS011;46702;48.370;10.794;2023-09-19T12:14:41;0.82;;;0.77;;
60867;SDS011;46702;48.370;10.794;2023-09-19T12:17:13;1.85;;;1.25;;
60867;SDS011;46702;48.370;10.794;2023-09-19T12:19:38;0.95;;;0.90;;
60867;SDS011;46702;48.370;10.794;2023-09-19T12:22:08;2.15;;;1.08;;
60867;SDS011;46702;48.370;10.794;2023-09-19T12:24:34;0.77;;;0.68;;
60867;SDS011;46702;48.370;10.794;2023-09-19T12:27:04;2.03;;;1.00;;
60867;SDS011;46702;48.370;10.794;2023-09-19T12:29:30;2.10;;;1.00;;
60867;SDS011;46702;48.370;10.794;2023-09-19T12:31:59;2.70;;;1.00;;
60867;SDS011;46702;48.370;10.794;2023-09-19T12:34:29;1.10;;;0.80;;
60867;SDS011;46702;48.370;10.794;2023-09-19T12:37:12;1.05;;;0.65;;
60867;SDS011;46702;48.370;10.794;2023-09-19T12:39:52;1.27;;;1.10;;
60867;SDS011;46702;48.370;10.794;2023-09-19T12:42:22;0.80;;;0.80;;
60867;SDS011;46702;48.370;10.794;2023-09-19T12:44:49;1.42;;;1.10;;
60867;SDS011;46702;48.370;10.794;2023-09-19T12:47:21;1.05;;;0.95;;
60867;SDS011;46702;48.370;10.794;2023-09-19T12:55:23;1.10;;;0.85;;
60867;SDS011;46702;48.370;10.794;2023-09-19T13:00:33;1.17;;;0.80;;
60867;SDS011;46702;48.370;10.794;2023-09-19T13:03:13;1.50;;;1.00;;
60867;SDS011;46702;48.370;10.794;2023-09-19T13:05:50;0.90;;;0.90;;
60867;SDS011;46702;48.370;10.794;2023-09-19T13:08:24;0.73;;;0.73;;
60867;SDS011;46702;48.370;10.794;2023-09-19T13:11:10;1.25;;;1.00;;
60867;SDS011;46702;48.370;10.794;2023-09-19T13:16:19;2.53;;;0.80;;
60867;SDS011;46702;48.370;10.794;2023-09-19T13:18:49;1.77;;;0.82;;
60867;SDS011;46702;48.370;10.794;2023-09-19T13:21:26;1.20;;;1.05;;
60867;SDS011;46702;48.370;10.794;2023-09-19T13:24:17;1.10;;;1.00;;
60867;SDS011;46702;48.370;10.794;2023-09-19T13:26:43;1.38;;;1.02;;
60867;SDS011;46702;48.370;10.794;2023-09-19T13:29:08;1.60;;;1.00;;
60867;SDS011;46702;48.370;10.794;2023-09-19T13:31:34;1.98;;;0.93;;
60867;SDS011;46702;48.370;10.794;2023-09-19T13:33:59;1.98;;;1.20;;
60867;SDS011;46702;48.370;10.794;2023-09-19T13:36:25;0.90;;;0.90;;
60867;SDS011;46702;48.370;10.794;2023-09-19T13:38:50;2.55;;;1.52;;
60867;SDS011;46702;48.370;10.794;2023-09-19T13:41:18;1.75;;;0.95;;
60867;SDS011;46702;48.370;10.794;2023-09-19T13:43:43;1.00;;;0.90;;
60867;SDS011;46702;48.370;10.794;2023-09-19T13:46:13;1.75;;;0.90;;
60867;SDS011;46702;48.370;10.794;2023-09-19T13:51:06;1.63;;;1.00;;
60867;SDS011;46702;48.370;10.794;2023-09-19T13:53:32;1.20;;;0.90;;
60867;SDS011;46702;48.370;10.794;2023-09-19T13:55:57;0.82;;;0.82;;
60867;SDS011;46702;48.370;10.794;2023-09-19T13:58:23;1.67;;;1.00;;
60867;SDS011;46702;48.370;10.794;2023-09-19T14:00:49;1.80;;;1.00;;
60867;SDS011;46702;48.370;10.794;2023-09-19T14:03:15;1.08;;;0.90;;
60867;SDS011;46702;48.370;10.794;2023-09-19T14:05:41;1.00;;;0.90;;
60867;SDS011;46702;48.370;10.794;2023-09-19T14:08:07;1.00;;;0.90;;
60867;SDS011;46702;48.370;10.794;2023-09-19T14:10:33;1.38;;;1.00;;
60867;SDS011;46702;48.370;10.794;2023-09-19T14:13:00;1.20;;;1.10;;
60867;SDS011;46702;48.370;10.794;2023-09-19T14:15:26;1.13;;;1.00;;
60867;SDS011;46702;48.370;10.794;2023-09-19T14:17:56;1.13;;;1.02;;
60867;SDS011;46702;48.370;10.794;2023-09-19T14:20:22;0.80;;;0.80;;
60867;SDS011;46702;48.370;10.794;2023-09-19T14:22:48;1.45;;;1.08;;
60867;SDS011;46702;48.370;10.794;2023-09-19T14:25:14;2.05;;;1.00;;
60867;SDS011;46702;48.370;10.794;2023-09-19T14:27:39;1.77;;;1.10;;
60867;SDS011;46702;48.370;10.794;2023-09-19T14:30:06;1.88;;;1.35;;
60867;SDS011;46702;48.370;10.794;2023-09-19T14:32:32;4.43;;;1.15;;
60867;SDS011;46702;48.370;10.794;2023-09-19T14:34:58;1.15;;;1.05;;
60867;SDS011;46702;48.370;10.794;2023-09-19T14:37:24;1.42;;;0.90;;
60867;SDS011;46702;48.370;10.794;2023-09-19T14:39:50;2.65;;;1.20;;
60867;SDS011;46702;48.370;10.794;2023-09-19T14:42:15;1.17;;;0.90;;
60867;SDS011;46702;48.370;10.794;2023-09-19T14:44:42;2.05;;;0.85;;
60867;SDS011;46702;48.370;10.794;2023-09-19T14:47:08;2.17;;;1.08;;
60867;SDS011;46702;48.370;10.794;2023-09-19T14:49:34;1.42;;;0.98;;
60867;SDS011;46702;48.370;10.794;2023-09-19T14:52:03;0.70;;;0.70;;
60867;SDS011;46702;48.370;10.794;2023-09-19T14:54:29;1.33;;;1.00;;
60867;SDS011;46702;48.370;10.794;2023-09-19T14:56:56;1.75;;;1.10;;
60867;SDS011;46702;48.370;10.794;2023-09-19T14:59:30;1.10;;;1.00;;
60867;SDS011;46702;48.370;10.794;2023-09-19T15:01:57;1.10;;;1.00;;
60867;SDS011;46702;48.370;10.794;2023-09-19T15:04:23;1.67;;;1.00;;
60867;SDS011;46702;48.370;10.794;2023-09-19T15:06:49;2.42;;;1.20;;
60867;SDS011;46702;48.370;10.794;2023-09-19T15:09:16;1.25;;;0.98;;
60867;SDS011;46702;48.370;10.794;2023-09-19T15:14:09;1.13;;;1.00;;
60867;SDS011;46702;48.370;10.794;2023-09-19T15:16:35;0.80;;;0.80;;
60867;SDS011;46702;48.370;10.794;2023-09-19T15:19:00;2.47;;;1.27;;
60867;SDS011;46702;48.370;10.794;2023-09-19T15:21:26;1.63;;;1.10;;
60867;SDS011;46702;48.370;10.794;2023-09-19T15:23:52;1.88;;;1.10;;
60867;SDS011;46702;48.370;10.794;2023-09-19T15:26:17;0.80;;;0.80;;
60867;SDS011;46702;48.370;10.794;2023-09-19T15:28:46;1.45;;;0.85;;
60867;SDS011;46702;48.370;10.794;2023-09-19T15:31:13;1.85;;;1.20;;
60867;SDS011;46702;48.370;10.794;2023-09-19T15:33:39;1.35;;;0.90;;
60867;SDS011;46702;48.370;10.794;2023-09-19T15:36:08;1.00;;;0.93;;
60867;SDS011;46702;48.370;10.794;2023-09-19T15:41:33;3.78;;;1.23;;
60867;SDS011;46702;48.370;10.794;2023-09-19T15:44:00;2.05;;;1.00;;
60867;SDS011;46702;48.370;10.794;2023-09-19T15:46:28;3.53;;;1.10;;
60867;SDS011;46702;48.370;10.794;2023-09-19T15:49:01;1.67;;;1.10;;
60867;SDS011;46702;48.370;10.794;2023-09-19T15:51:27;1.20;;;0.95;;
60867;SDS011;46702;48.370;10.794;2023-09-19T15:53:54;1.23;;;0.90;;
60867;SDS011;46702;48.370;10.794;2023-09-19T15:56:21;1.15;;;0.98;;
60867;SDS011;46702;48.370;10.794;2023-09-19T15:58:48;1.75;;;1.05;;